createdAt,value
2022-07-28T00:00:15.347Z,100.00
2022-07-28T00:02:42.983Z,100.00
2022-07-28T00:05:10.867Z,100.00
2022-07-28T00:07:38.191Z,100.00
2022-07-28T00:10:06.056Z,100.00
2022-07-28T00:12:33.477Z,100.00
2022-07-28T00:15:01.146Z,100.00
2022-07-28T00:17:28.781Z,100.00
2022-07-28T00:19:58.147Z,100.00
2022-07-28T00:22:27.207Z,100.00
2022-07-28T00:24:55.096Z,100.00
2022-07-28T00:27:22.528Z,100.00
2022-07-28T00:29:51.259Z,100.00
2022-07-28T00:32:19.423Z,100.00
2022-07-28T00:34:47.250Z,100.00
2022-07-28T00:37:15.157Z,100.00
2022-07-28T00:39:43.418Z,100.00
2022-07-28T00:42:12.392Z,100.00
2022-07-28T00:44:42.133Z,100.00
2022-07-28T00:47:09.874Z,100.00
2022-07-28T00:49:37.286Z,100.00
2022-07-28T00:52:05.301Z,100.00
2022-07-28T00:54:33.572Z,100.00
2022-07-28T00:57:00.977Z,100.00
2022-07-28T00:59:29.631Z,100.00
2022-07-28T01:02:01.500Z,100.00
2022-07-28T01:04:29.139Z,100.00
2022-07-28T01:07:17.469Z,100.00
2022-07-28T01:10:03.629Z,100.00
2022-07-28T01:12:51.652Z,100.00
2022-07-28T01:15:26.375Z,100.00
2022-07-28T01:18:07.089Z,100.00
2022-07-28T01:20:48.304Z,100.00
2022-07-28T01:23:21.833Z,100.00
2022-07-28T01:25:50.124Z,100.00
2022-07-28T01:28:33.318Z,100.00
2022-07-28T01:31:02.916Z,100.00
2022-07-28T01:33:34.103Z,100.00
2022-07-28T01:36:09.196Z,100.00
2022-07-28T01:38:37.576Z,100.00
2022-07-28T01:41:05.668Z,100.00
2022-07-28T01:43:33.721Z,100.00
2022-07-28T01:46:01.188Z,100.00
2022-07-28T01:48:28.648Z,100.00
2022-07-28T01:50:56.275Z,100.00
2022-07-28T01:53:24.250Z,100.00
2022-07-28T01:55:51.606Z,100.00
2022-07-28T01:58:19.471Z,100.00
2022-07-28T02:00:49.805Z,100.00
2022-07-28T02:03:18.516Z,100.00
2022-07-28T02:05:47.136Z,100.00
2022-07-28T02:08:14.498Z,100.00
2022-07-28T02:10:42.447Z,100.00
2022-07-28T02:13:10.526Z,100.00
2022-07-28T02:15:38.005Z,100.00
2022-07-28T02:18:05.542Z,100.00
2022-07-28T02:20:35.639Z,100.00
2022-07-28T02:23:03.141Z,100.00
2022-07-28T02:25:30.985Z,100.00
2022-07-28T02:27:59.031Z,100.00
2022-07-28T02:30:31.372Z,100.00
2022-07-28T02:33:02.829Z,100.00
2022-07-28T02:35:40.700Z,100.00
2022-07-28T02:38:15.337Z,100.00
2022-07-28T02:40:43.261Z,100.00
2022-07-28T02:43:11.377Z,100.00
2022-07-28T02:45:39.008Z,100.00
2022-07-28T02:48:07.471Z,100.00
2022-07-28T02:50:34.893Z,100.00
2022-07-28T02:53:14.828Z,100.00
2022-07-28T02:55:46.795Z,100.00
2022-07-28T02:58:14.698Z,100.00
2022-07-28T03:00:42.297Z,100.00
2022-07-28T03:03:09.674Z,100.00
2022-07-28T03:05:40.135Z,100.00
2022-07-28T03:08:07.836Z,100.00
2022-07-28T03:10:36.010Z,100.00
2022-07-28T03:13:04.295Z,100.00
2022-07-28T03:15:33.996Z,100.00
2022-07-28T03:18:02.329Z,100.00
2022-07-28T03:20:30.469Z,100.00
2022-07-28T03:23:02.246Z,100.00
2022-07-28T03:25:35.325Z,100.00
2022-07-28T03:28:04.952Z,100.00
2022-07-28T03:30:33.518Z,100.00
2022-07-28T03:33:01.588Z,100.00
2022-07-28T03:35:29.095Z,100.00
2022-07-28T03:38:00.307Z,100.00
2022-07-28T03:40:29.804Z,100.00
2022-07-28T03:42:57.562Z,100.00
2022-07-28T03:45:25.179Z,100.00
2022-07-28T03:47:56.206Z,100.00
2022-07-28T03:50:24.273Z,100.00
2022-07-28T03:52:51.760Z,100.00
2022-07-28T03:55:19.443Z,100.00
2022-07-28T03:57:46.893Z,100.00
2022-07-28T04:00:16.721Z,100.00
2022-07-28T04:02:45.489Z,100.00
2022-07-28T04:05:13.603Z,100.00
2022-07-28T04:08:00.933Z,100.00
2022-07-28T04:10:28.372Z,100.00
2022-07-28T04:12:56.764Z,100.00
2022-07-28T04:15:25.748Z,100.00
2022-07-28T04:17:53.495Z,100.00
2022-07-28T04:20:21.261Z,100.00
2022-07-28T04:22:48.916Z,100.00
2022-07-28T04:25:16.877Z,100.00
2022-07-28T04:27:44.476Z,100.00
2022-07-28T04:30:13.463Z,100.00
2022-07-28T04:32:41.131Z,100.00
2022-07-28T04:35:08.736Z,98.68
2022-07-28T04:37:36.493Z,95.66
2022-07-28T04:40:04.560Z,95.49
2022-07-28T04:42:33.884Z,94.28
2022-07-28T04:45:01.343Z,95.40
2022-07-28T04:47:29.732Z,95.69
2022-07-28T04:49:57.428Z,94.31
2022-07-28T04:52:25.928Z,93.39
2022-07-28T04:54:53.562Z,93.71
2022-07-28T04:57:22.797Z,93.01
2022-07-28T04:59:54.448Z,92.87
2022-07-28T05:02:24.506Z,93.21
2022-07-28T05:04:51.921Z,92.93
2022-07-28T05:07:19.651Z,92.75
2022-07-28T05:09:48.472Z,91.96
2022-07-28T05:12:15.896Z,92.98
2022-07-28T05:14:45.868Z,90.92
2022-07-28T05:17:13.982Z,90.66
2022-07-28T05:19:41.467Z,91.98
2022-07-28T05:22:08.920Z,91.55
2022-07-28T05:24:36.371Z,90.76
2022-07-28T05:27:03.774Z,90.46
2022-07-28T05:29:46.821Z,89.12
2022-07-28T05:32:16.678Z,91.82
2022-07-28T05:34:45.765Z,93.29
2022-07-28T05:37:13.267Z,92.36
2022-07-28T05:39:41.260Z,90.27
2022-07-28T05:42:09.872Z,90.36
2022-07-28T05:44:38.539Z,88.31
2022-07-28T05:47:06.310Z,85.04
2022-07-28T05:49:35.723Z,85.16
2022-07-28T05:52:04.534Z,88.99
2022-07-28T05:54:32.061Z,89.07
2022-07-28T05:57:01.575Z,88.32
2022-07-28T14:38:53.138Z,40.45
2022-07-28T14:41:22.402Z,38.06
2022-07-28T14:43:49.882Z,37.01
2022-07-28T14:46:21.359Z,36.62
2022-07-28T14:48:49.587Z,37.44
2022-07-28T14:51:17.164Z,38.62
2022-07-28T14:53:51.580Z,37.63
2022-07-28T14:56:20.295Z,36.73
2022-07-28T14:58:47.820Z,37.14
2022-07-28T15:01:15.274Z,39.06
2022-07-28T15:03:43.327Z,40.29
2022-07-28T15:06:11.140Z,40.56
2022-07-28T15:08:38.589Z,41.81
2022-07-28T15:11:08.804Z,43.52
2022-07-28T15:13:36.331Z,42.33
2022-07-28T15:16:06.420Z,42.07
2022-07-28T15:18:35.903Z,43.26
2022-07-28T15:21:03.492Z,43.18
2022-07-28T15:23:31.200Z,40.51
2022-07-28T15:25:58.642Z,39.99
2022-07-28T15:28:26.322Z,39.12
2022-07-28T15:30:54.660Z,39.30
2022-07-28T15:33:22.415Z,38.51
2022-07-28T15:35:58.434Z,38.81
2022-07-28T15:38:31.679Z,39.43
2022-07-28T15:40:59.723Z,39.29
2022-07-28T15:43:30.732Z,40.05
2022-07-28T15:45:58.429Z,40.86
2022-07-28T15:48:25.999Z,39.66
2022-07-28T15:50:54.053Z,40.31
2022-07-28T15:53:21.927Z,42.88
2022-07-28T15:55:51.814Z,43.02
2022-07-28T15:58:20.159Z,43.76
2022-07-28T16:00:48.659Z,44.00
2022-07-28T16:03:16.751Z,45.28
2022-07-28T16:05:49.526Z,44.29
2022-07-28T16:08:22.475Z,44.30
2022-07-28T16:10:51.741Z,45.28
2022-07-28T16:13:31.467Z,44.90
2022-07-28T16:16:09.609Z,45.38
2022-07-28T16:18:38.193Z,47.94
2022-07-28T16:21:06.138Z,52.71
2022-07-28T16:23:33.684Z,53.40
2022-07-28T16:26:01.126Z,52.48
2022-07-28T16:28:29.610Z,53.55
2022-07-28T16:30:57.002Z,56.40
2022-07-28T16:33:24.541Z,55.80
2022-07-28T16:35:52.186Z,55.91
2022-07-28T16:38:19.903Z,59.44
2022-07-28T16:40:47.325Z,58.13
2022-07-28T16:43:14.886Z,56.71
2022-07-28T16:45:42.434Z,57.37
2022-07-28T16:48:09.950Z,59.96
2022-07-28T16:50:38.705Z,57.47
2022-07-28T16:53:09.116Z,57.06
2022-07-28T16:55:36.811Z,59.24
2022-07-28T16:58:04.371Z,60.60
2022-07-28T17:00:32.169Z,59.09
2022-07-28T17:02:59.671Z,59.76
2022-07-28T17:05:27.130Z,62.00
2022-07-28T17:07:54.610Z,60.36
2022-07-28T17:10:27.058Z,59.88
2022-07-28T17:12:55.234Z,61.26
2022-07-28T17:15:23.532Z,63.27
2022-07-28T17:17:52.722Z,60.83
2022-07-28T17:20:21.148Z,60.14
2022-07-28T17:22:48.778Z,64.23
2022-07-28T17:28:04.195Z,60.75
2022-07-28T17:30:33.180Z,63.47
2022-07-28T17:33:07.660Z,63.98
2022-07-28T17:35:36.229Z,62.62
2022-07-28T17:38:04.036Z,65.65
2022-07-28T17:40:31.779Z,68.49
2022-07-28T17:42:59.181Z,69.81
2022-07-28T17:45:26.650Z,67.98
2022-07-28T17:47:55.242Z,64.56
2022-07-28T17:50:22.812Z,65.06
2022-07-28T17:52:50.206Z,68.24
2022-07-28T17:55:58.087Z,64.99
2022-07-28T17:58:29.412Z,62.03
2022-07-28T18:01:09.959Z,66.31
2022-07-28T18:03:57.872Z,64.60
2022-07-28T18:06:32.712Z,63.34
2022-07-28T18:09:05.459Z,67.62
2022-07-28T18:11:37.500Z,67.32
2022-07-28T18:14:23.470Z,63.98
2022-07-28T18:16:50.917Z,65.42
2022-07-28T18:19:19.086Z,68.25
2022-07-28T18:21:46.509Z,65.50
2022-07-28T18:24:14.301Z,64.89
2022-07-28T18:26:42.447Z,68.17
2022-07-28T18:29:09.837Z,68.34
2022-07-28T18:31:43.844Z,66.53
2022-07-28T18:34:14.126Z,66.60
2022-07-28T18:36:42.512Z,71.21
2022-07-28T18:39:10.379Z,67.14
2022-07-28T18:41:46.331Z,65.25
2022-07-28T18:44:18.923Z,68.91
2022-07-28T18:46:47.229Z,69.50
2022-07-28T18:49:15.241Z,67.02
2022-07-28T18:51:45.140Z,71.30
2022-07-28T18:54:14.975Z,74.48
2022-07-28T18:56:43.948Z,75.78
2022-07-28T18:59:12.018Z,78.52
2022-07-28T19:01:39.536Z,83.40
2022-07-28T19:04:07.299Z,72.73
2022-07-28T19:06:37.004Z,62.85
2022-07-28T19:09:04.758Z,59.79
2022-07-28T19:11:32.700Z,58.58
2022-07-28T19:14:03.759Z,59.15
2022-07-28T19:16:33.472Z,58.94
2022-07-28T19:19:00.997Z,66.54
2022-07-28T19:21:28.478Z,75.90
2022-07-28T19:23:56.103Z,82.43
2022-07-28T19:26:24.346Z,84.71
2022-07-28T19:28:53.713Z,86.36
2022-07-28T19:31:21.156Z,88.67
2022-07-28T19:33:48.780Z,89.18
2022-07-28T19:36:16.749Z,91.46
2022-07-28T19:38:44.288Z,91.34
2022-07-28T19:41:15.737Z,91.29
2022-07-28T19:43:43.412Z,89.88
2022-07-28T19:46:11.171Z,92.99
2022-07-28T19:48:38.765Z,92.43
2022-07-28T19:51:06.473Z,94.35
2022-07-28T19:53:35.724Z,91.68
2022-07-28T19:56:07.127Z,93.86
2022-07-28T19:58:36.995Z,94.28
2022-07-28T20:01:04.919Z,95.36
2022-07-28T20:04:02.478Z,95.91
2022-07-28T20:06:25.293Z,96.49
2022-07-28T20:08:54.256Z,94.87
2022-07-28T20:11:23.645Z,93.52
2022-07-28T20:13:53.673Z,95.44
2022-07-28T20:16:21.468Z,95.32
2022-07-28T20:18:52.149Z,94.71
2022-07-28T20:21:21.492Z,95.77
2022-07-28T20:23:49.295Z,96.99
2022-07-28T20:26:23.765Z,95.40
2022-07-28T20:28:51.941Z,99.93
2022-07-28T20:31:20.514Z,97.58
2022-07-28T20:33:48.192Z,99.79
2022-07-28T20:36:15.748Z,100.00
2022-07-28T20:38:45.308Z,100.00
2022-07-28T20:41:13.632Z,100.00
2022-07-28T20:43:41.127Z,100.00
2022-07-28T20:46:08.693Z,100.00
2022-07-28T20:48:36.350Z,100.00
2022-07-28T20:51:03.894Z,100.00
2022-07-28T20:53:32.269Z,99.75
2022-07-28T20:55:59.962Z,100.00
2022-07-28T20:58:27.522Z,100.00
2022-07-28T21:00:55.031Z,100.00
2022-07-28T21:03:22.965Z,100.00
2022-07-28T21:05:50.461Z,100.00
2022-07-28T21:08:18.583Z,100.00
2022-07-28T21:10:46.146Z,100.00
2022-07-28T21:13:14.395Z,100.00
2022-07-28T21:15:42.207Z,100.00
2022-07-28T21:18:12.732Z,100.00
2022-07-28T21:20:40.256Z,100.00
2022-07-28T21:23:08.591Z,100.00
2022-07-28T21:25:36.718Z,100.00
2022-07-28T21:28:22.843Z,100.00
2022-07-28T21:30:50.415Z,99.86
2022-07-28T21:33:22.598Z,100.00
2022-07-28T21:35:51.115Z,100.00
2022-07-28T21:38:18.547Z,100.00
2022-07-28T21:40:47.312Z,100.00
2022-07-28T21:43:14.680Z,100.00
2022-07-28T21:45:43.428Z,100.00
2022-07-28T21:48:10.939Z,100.00
2022-07-28T21:50:38.332Z,100.00
2022-07-28T21:53:05.739Z,100.00
2022-07-28T21:55:33.361Z,100.00
2022-07-28T21:58:00.849Z,99.76
2022-07-28T22:00:28.418Z,99.14
2022-07-28T22:02:56.309Z,100.00
2022-07-28T22:05:28.049Z,100.00
2022-07-28T22:07:56.718Z,100.00
2022-07-28T22:10:24.316Z,100.00
2022-07-28T22:12:53.309Z,97.39
2022-07-28T22:15:20.611Z,96.29
2022-07-28T22:17:49.467Z,97.59
2022-07-28T22:20:16.930Z,97.57
2022-07-28T22:22:44.438Z,99.49
2022-07-28T22:25:11.914Z,97.69
2022-07-28T22:27:39.431Z,97.84
2022-07-28T22:30:07.660Z,98.48
2022-07-28T22:32:35.465Z,98.51
2022-07-28T22:35:03.276Z,97.48
2022-07-28T22:37:31.028Z,97.89
2022-07-28T22:39:58.473Z,95.54
2022-07-28T22:42:25.839Z,95.76
2022-07-28T22:44:54.008Z,99.11
2022-07-28T22:47:21.392Z,97.72
2022-07-28T22:49:48.821Z,98.42
2022-07-28T22:52:16.557Z,100.00
2022-07-28T22:54:44.449Z,100.00
2022-07-28T22:57:12.080Z,97.25
2022-07-28T22:59:40.797Z,99.51
2022-07-28T23:02:11.021Z,98.99
2022-07-28T23:04:40.185Z,99.38
2022-07-28T23:07:12.405Z,99.43
2022-07-28T23:09:43.101Z,99.06
2022-07-28T23:12:11.326Z,100.00
2022-07-28T23:14:38.867Z,98.39
2022-07-28T23:17:06.619Z,99.73
2022-07-28T23:19:34.966Z,100.00
2022-07-28T23:22:05.558Z,100.00
2022-07-28T23:24:34.033Z,98.31
2022-07-28T23:27:01.571Z,99.11
2022-07-28T23:29:29.154Z,98.98
2022-07-28T23:31:59.696Z,100.00
2022-07-28T23:34:28.171Z,100.00
2022-07-28T23:36:55.619Z,99.04
2022-07-28T23:39:24.487Z,100.00
2022-07-28T23:41:52.660Z,99.14
2022-07-28T23:44:20.245Z,97.70
2022-07-28T23:46:47.797Z,99.92
2022-07-28T23:49:15.902Z,97.46
2022-07-28T23:51:46.884Z,96.36
2022-07-28T23:54:17.798Z,96.80
2022-07-28T23:56:46.485Z,95.82
2022-07-28T23:59:14.857Z,97.66
